RUK3FQ EIDW-EGCC
Flight info
| Callsign | RUK3FQ |
|---|---|
| Flight time | 0h 33m |
| Altitude | 21000 |
| Route | BOFUM3J BOFUM Q37 MALUD |
| Aircraft | B738/M-SDE3FGILRWY/SB1 |
Departure
| Time | 2026-05-03 20:52 |
|---|---|
| Airport | Dublin Airport (EIDW) |
Arrival
| Time | 2026-05-03 21:25 |
|---|---|
| Airport | Manchester Airport (EGCC) |
| Time | Latitude | Longitude | Altitude | Speed | Heading |
|---|---|---|---|---|---|
| 2026-05-03 20:20 | 53.43008 | -6.24943 | 210 ft | 0 kts | 5° |
| 2026-05-03 20:38 | 53.43001 | -6.24945 | 210 ft | 4 kts | 347° |
| 2026-05-03 20:39 | 53.42990 | -6.24947 | 192 ft | 4 kts | 352° |
| 2026-05-03 20:39 | 53.42968 | -6.24930 | 217 ft | 3 kts | 331° |
| 2026-05-03 20:39 | 53.42952 | -6.24912 | 210 ft | 4 kts | 297° |
| 2026-05-03 20:39 | 53.42946 | -6.24871 | 210 ft | 3 kts | 276° |
| 2026-05-03 20:40 | 53.42943 | -6.24827 | 210 ft | 4 kts | 276° |
| 2026-05-03 20:40 | 53.42940 | -6.24782 | 221 ft | 4 kts | 275° |
| 2026-05-03 20:40 | 53.42938 | -6.24750 | 215 ft | 0 kts | 275° |
| 2026-05-03 20:44 | 53.42939 | -6.24766 | 218 ft | 3 kts | 275° |
| 2026-05-03 20:44 | 53.42938 | -6.24825 | 217 ft | 8 kts | 251° |
| 2026-05-03 20:44 | 53.42889 | -6.24922 | 220 ft | 13 kts | 228° |
| 2026-05-03 20:44 | 53.42825 | -6.25030 | 218 ft | 13 kts | 215° |
| 2026-05-03 20:45 | 53.42752 | -6.25132 | 210 ft | 14 kts | 225° |
| 2026-05-03 20:45 | 53.42676 | -6.25262 | 210 ft | 17 kts | 225° |
| 2026-05-03 20:45 | 53.42587 | -6.25416 | 212 ft | 20 kts | 225° |
| 2026-05-03 20:45 | 53.42484 | -6.25591 | 212 ft | 22 kts | 225° |
| 2026-05-03 20:46 | 53.42375 | -6.25778 | 214 ft | 23 kts | 225° |
| 2026-05-03 20:46 | 53.42295 | -6.25916 | 210 ft | 0 kts | 226° |
| 2026-05-03 20:47 | 53.42294 | -6.25918 | 210 ft | 1 kts | 226° |
| 2026-05-03 20:47 | 53.42261 | -6.25988 | 210 ft | 15 kts | 246° |
| 2026-05-03 20:47 | 53.42264 | -6.26241 | 210 ft | 27 kts | 275° |
| 2026-05-03 20:48 | 53.42280 | -6.26550 | 215 ft | 26 kts | 275° |
| 2026-05-03 20:48 | 53.42297 | -6.26842 | 210 ft | 24 kts | 276° |
| 2026-05-03 20:48 | 53.42311 | -6.27113 | 214 ft | 23 kts | 276° |
| 2026-05-03 20:48 | 53.42326 | -6.27374 | 210 ft | 22 kts | 275° |
| 2026-05-03 20:49 | 53.42340 | -6.27628 | 217 ft | 22 kts | 275° |
| 2026-05-03 20:49 | 53.42354 | -6.27875 | 217 ft | 21 kts | 276° |
| 2026-05-03 20:49 | 53.42367 | -6.28114 | 214 ft | 20 kts | 275° |
| 2026-05-03 20:49 | 53.42379 | -6.28347 | 218 ft | 20 kts | 275° |
| 2026-05-03 20:50 | 53.42393 | -6.28592 | 210 ft | 22 kts | 276° |
| 2026-05-03 20:50 | 53.42406 | -6.28840 | 210 ft | 21 kts | 275° |
| 2026-05-03 20:50 | 53.42376 | -6.29062 | 214 ft | 20 kts | 213° |
| 2026-05-03 20:50 | 53.42248 | -6.29026 | 210 ft | 20 kts | 120° |
| 2026-05-03 20:51 | 53.42231 | -6.28801 | 214 ft | 20 kts | 95° |
| 2026-05-03 20:51 | 53.42201 | -6.28210 | 211 ft | 86 kts | 95° |
| 2026-05-03 20:51 | 53.42124 | -6.26861 | 213 ft | 144 kts | 95° |
| 2026-05-03 20:51 | 53.42016 | -6.25092 | 679 ft | 155 kts | 92° |
| 2026-05-03 20:52 | 53.41916 | -6.23272 | 1411 ft | 159 kts | 94° |
| 2026-05-03 20:52 | 53.41793 | -6.21333 | 1864 ft | 183 kts | 92° |
| 2026-05-03 20:52 | 53.41678 | -6.19042 | 2122 ft | 210 kts | 92° |
| 2026-05-03 20:52 | 53.41533 | -6.16459 | 2349 ft | 235 kts | 92° |
| 2026-05-03 20:53 | 53.41389 | -6.13642 | 2914 ft | 248 kts | 92° |
| 2026-05-03 20:53 | 53.41232 | -6.10733 | 3753 ft | 252 kts | 92° |
| 2026-05-03 20:53 | 53.41069 | -6.07782 | 4598 ft | 256 kts | 92° |
| 2026-05-03 20:53 | 53.40913 | -6.04797 | 5449 ft | 258 kts | 89° |
| 2026-05-03 20:54 | 53.41249 | -6.01857 | 6207 ft | 260 kts | 65° |
| 2026-05-03 20:54 | 53.42660 | -5.96193 | 7782 ft | 267 kts | 67° |
| 2026-05-03 20:54 | 53.43354 | -5.93268 | 8489 ft | 274 kts | 67° |
| 2026-05-03 20:55 | 53.44067 | -5.90299 | 8969 ft | 277 kts | 67° |
| 2026-05-03 20:55 | 53.44787 | -5.87268 | 8971 ft | 281 kts | 68° |
| 2026-05-03 20:55 | 53.45524 | -5.84224 | 9309 ft | 282 kts | 68° |
| 2026-05-03 20:55 | 53.46247 | -5.81140 | 10072 ft | 285 kts | 68° |
| 2026-05-03 20:56 | 53.46999 | -5.77986 | 10484 ft | 302 kts | 68° |
| 2026-05-03 20:56 | 53.47818 | -5.74579 | 10693 ft | 324 kts | 68° |
| 2026-05-03 20:56 | 53.48672 | -5.71032 | 11294 ft | 330 kts | 68° |
| 2026-05-03 20:56 | 53.49532 | -5.67449 | 12104 ft | 331 kts | 68° |
| 2026-05-03 20:57 | 53.50398 | -5.63837 | 12893 ft | 334 kts | 68° |
| 2026-05-03 20:57 | 53.51265 | -5.60218 | 13763 ft | 335 kts | 68° |
| 2026-05-03 20:57 | 53.52140 | -5.56543 | 14372 ft | 342 kts | 67° |
| 2026-05-03 20:57 | 53.53036 | -5.52855 | 15184 ft | 342 kts | 68° |
| 2026-05-03 20:58 | 53.53694 | -5.49046 | 15898 ft | 347 kts | 85° |
| 2026-05-03 20:58 | 53.53702 | -5.46312 | 16449 ft | 348 kts | 90° |
| 2026-05-03 20:58 | 53.53551 | -5.40948 | 17634 ft | 345 kts | 92° |
| 2026-05-03 20:58 | 53.53424 | -5.36921 | 18473 ft | 345 kts | 92° |
| 2026-05-03 20:59 | 53.53308 | -5.32885 | 19167 ft | 347 kts | 91° |
| 2026-05-03 20:59 | 53.53201 | -5.28875 | 20050 ft | 341 kts | 91° |
| 2026-05-03 20:59 | 53.53108 | -5.24894 | 20686 ft | 341 kts | 90° |
| 2026-05-03 20:59 | 53.53012 | -5.20946 | 20976 ft | 339 kts | 91° |
| 2026-05-03 21:00 | 53.52959 | -5.18268 | 20979 ft | 341 kts | 92° |
| 2026-05-03 21:00 | 53.52897 | -5.15626 | 20981 ft | 343 kts | 92° |
| 2026-05-03 21:00 | 53.52720 | -5.10262 | 20983 ft | 343 kts | 92° |
| 2026-05-03 21:00 | 53.52613 | -5.06309 | 20987 ft | 343 kts | 91° |
| 2026-05-03 21:01 | 53.52483 | -5.02249 | 20989 ft | 343 kts | 92° |
| 2026-05-03 21:01 | 53.52337 | -4.98292 | 20982 ft | 344 kts | 94° |
| 2026-05-03 21:01 | 53.52191 | -4.94290 | 20968 ft | 344 kts | 92° |
| 2026-05-03 21:01 | 53.52063 | -4.90223 | 20977 ft | 343 kts | 91° |
| 2026-05-03 21:02 | 53.51952 | -4.86224 | 20971 ft | 343 kts | 93° |
| 2026-05-03 21:02 | 53.51805 | -4.82210 | 20973 ft | 343 kts | 93° |
| 2026-05-03 21:02 | 53.51689 | -4.78497 | 20972 ft | 343 kts | 92° |
| 2026-05-03 21:02 | 53.51557 | -4.74499 | 20972 ft | 343 kts | 93° |
| 2026-05-03 21:03 | 53.51398 | -4.70495 | 20961 ft | 343 kts | 92° |
| 2026-05-03 21:03 | 53.51272 | -4.66491 | 20967 ft | 343 kts | 92° |
| 2026-05-03 21:03 | 53.51122 | -4.62489 | 20966 ft | 344 kts | 94° |
| 2026-05-03 21:03 | 53.50956 | -4.58478 | 20963 ft | 344 kts | 93° |
| 2026-05-03 21:04 | 53.50813 | -4.54461 | 20968 ft | 345 kts | 93° |
| 2026-05-03 21:04 | 53.50676 | -4.50442 | 20977 ft | 345 kts | 92° |
| 2026-05-03 21:04 | 53.50535 | -4.46408 | 20971 ft | 346 kts | 93° |
| 2026-05-03 21:04 | 53.50391 | -4.42376 | 20968 ft | 346 kts | 93° |
| 2026-05-03 21:05 | 53.50243 | -4.38346 | 20970 ft | 346 kts | 93° |
| 2026-05-03 21:05 | 53.50093 | -4.34311 | 20966 ft | 346 kts | 93° |
| 2026-05-03 21:05 | 53.49943 | -4.30327 | 20948 ft | 337 kts | 93° |
| 2026-05-03 21:05 | 53.49794 | -4.26418 | 20715 ft | 333 kts | 93° |
| 2026-05-03 21:06 | 53.49647 | -4.22578 | 20482 ft | 328 kts | 93° |
| 2026-05-03 21:06 | 53.49500 | -4.18772 | 20189 ft | 325 kts | 93° |
| 2026-05-03 21:06 | 53.49353 | -4.15005 | 19875 ft | 322 kts | 93° |
| 2026-05-03 21:06 | 53.49208 | -4.11272 | 19559 ft | 320 kts | 93° |
| 2026-05-03 21:07 | 53.49047 | -4.07561 | 19241 ft | 318 kts | 94° |
| 2026-05-03 21:07 | 53.48900 | -4.03865 | 18921 ft | 316 kts | 93° |
| 2026-05-03 21:07 | 53.48758 | -4.00186 | 18618 ft | 315 kts | 93° |
| 2026-05-03 21:07 | 53.48590 | -3.96526 | 18296 ft | 314 kts | 97° |
| 2026-05-03 21:08 | 53.48048 | -3.92993 | 17934 ft | 313 kts | 108° |
| 2026-05-03 21:08 | 53.47328 | -3.89562 | 17595 ft | 311 kts | 109° |
| 2026-05-03 21:08 | 53.46599 | -3.86157 | 17279 ft | 309 kts | 109° |
| 2026-05-03 21:08 | 53.45880 | -3.82777 | 16975 ft | 307 kts | 109° |
| 2026-05-03 21:09 | 53.45169 | -3.79397 | 16675 ft | 308 kts | 109° |
| 2026-05-03 21:09 | 53.44460 | -3.76001 | 16359 ft | 309 kts | 109° |
| 2026-05-03 21:09 | 53.43755 | -3.72607 | 16048 ft | 307 kts | 109° |
| 2026-05-03 21:09 | 53.43054 | -3.69231 | 15737 ft | 305 kts | 109° |
| 2026-05-03 21:10 | 53.42358 | -3.65884 | 15442 ft | 303 kts | 109° |
| 2026-05-03 21:10 | 53.41702 | -3.62540 | 15000 ft | 305 kts | 102° |
| 2026-05-03 21:10 | 53.41716 | -3.58981 | 14539 ft | 307 kts | 78° |
| 2026-05-03 21:10 | 53.42207 | -3.55481 | 14154 ft | 308 kts | 76° |
| 2026-05-03 21:11 | 53.42737 | -3.52010 | 13842 ft | 307 kts | 76° |
| 2026-05-03 21:11 | 53.43263 | -3.48554 | 13490 ft | 306 kts | 76° |
| 2026-05-03 21:11 | 53.43773 | -3.45112 | 13154 ft | 304 kts | 76° |
| 2026-05-03 21:11 | 53.44270 | -3.41679 | 12834 ft | 301 kts | 76° |
| 2026-05-03 21:12 | 53.44754 | -3.38272 | 12527 ft | 299 kts | 76° |
| 2026-05-03 21:12 | 53.45228 | -3.34886 | 12219 ft | 297 kts | 76° |
| 2026-05-03 21:12 | 53.45691 | -3.31546 | 11922 ft | 295 kts | 76° |
| 2026-05-03 21:12 | 53.46151 | -3.28206 | 11621 ft | 293 kts | 77° |
| 2026-05-03 21:13 | 53.46606 | -3.24887 | 11324 ft | 291 kts | 77° |
| 2026-05-03 21:13 | 53.47055 | -3.21595 | 11031 ft | 289 kts | 77° |
| 2026-05-03 21:13 | 53.47286 | -3.18269 | 10706 ft | 289 kts | 96° |
| 2026-05-03 21:13 | 53.46699 | -3.15068 | 10401 ft | 288 kts | 116° |
| 2026-05-03 21:14 | 53.45753 | -3.12106 | 10076 ft | 288 kts | 119° |
| 2026-05-03 21:14 | 53.44767 | -3.09190 | 9772 ft | 287 kts | 120° |
| 2026-05-03 21:14 | 53.43783 | -3.06326 | 9409 ft | 280 kts | 120° |
| 2026-05-03 21:14 | 53.42820 | -3.03496 | 8906 ft | 279 kts | 120° |
| 2026-05-03 21:15 | 53.41855 | -3.00671 | 8364 ft | 279 kts | 119° |
| 2026-05-03 21:15 | 53.40881 | -2.97854 | 8038 ft | 280 kts | 119° |
| 2026-05-03 21:15 | 53.39896 | -2.95053 | 7992 ft | 281 kts | 120° |
| 2026-05-03 21:15 | 53.38905 | -2.92243 | 7955 ft | 278 kts | 120° |
| 2026-05-03 21:16 | 53.37931 | -2.89482 | 7771 ft | 274 kts | 120° |
| 2026-05-03 21:16 | 53.36970 | -2.86764 | 7396 ft | 270 kts | 119° |
| 2026-05-03 21:16 | 53.36007 | -2.84063 | 6887 ft | 271 kts | 118° |
| 2026-05-03 21:16 | 53.35015 | -2.81386 | 6422 ft | 270 kts | 121° |
| 2026-05-03 21:17 | 53.34033 | -2.78783 | 6226 ft | 257 kts | 119° |
| 2026-05-03 21:17 | 53.33403 | -2.77104 | 6136 ft | 247 kts | 119° |
| 2026-05-03 21:17 | 53.32234 | -2.74018 | 5978 ft | 229 kts | 120° |
| 2026-05-03 21:17 | 53.31394 | -2.71793 | 5663 ft | 225 kts | 119° |
| 2026-05-03 21:18 | 53.30562 | -2.69596 | 5333 ft | 220 kts | 120° |
| 2026-05-03 21:18 | 53.29750 | -2.67508 | 5184 ft | 208 kts | 122° |
| 2026-05-03 21:18 | 53.28969 | -2.65544 | 5007 ft | 200 kts | 120° |
| 2026-05-03 21:18 | 53.28210 | -2.63609 | 4715 ft | 199 kts | 122° |
| 2026-05-03 21:19 | 53.27432 | -2.61702 | 4403 ft | 198 kts | 120° |
| 2026-05-03 21:19 | 53.26684 | -2.59777 | 4109 ft | 196 kts | 120° |
| 2026-05-03 21:19 | 53.25946 | -2.57895 | 3934 ft | 192 kts | 119° |
| 2026-05-03 21:19 | 53.25376 | -2.55916 | 3789 ft | 189 kts | 95° |
| 2026-05-03 21:20 | 53.25463 | -2.53790 | 3646 ft | 182 kts | 80° |
| 2026-05-03 21:20 | 53.25627 | -2.51714 | 3424 ft | 178 kts | 80° |
| 2026-05-03 21:20 | 53.25818 | -2.49701 | 3204 ft | 173 kts | 79° |
| 2026-05-03 21:20 | 53.25994 | -2.47735 | 3004 ft | 170 kts | 77° |
| 2026-05-03 21:21 | 53.26501 | -2.45978 | 2816 ft | 170 kts | 52° |
| 2026-05-03 21:21 | 53.27233 | -2.44400 | 2583 ft | 173 kts | 53° |
| 2026-05-03 21:21 | 53.27974 | -2.42827 | 2348 ft | 172 kts | 52° |
| 2026-05-03 21:21 | 53.28718 | -2.41281 | 2122 ft | 167 kts | 51° |
| 2026-05-03 21:22 | 53.29421 | -2.39824 | 1915 ft | 154 kts | 51° |
| 2026-05-03 21:22 | 53.30070 | -2.38482 | 1725 ft | 141 kts | 51° |
| 2026-05-03 21:22 | 53.30662 | -2.37267 | 1585 ft | 129 kts | 51° |
| 2026-05-03 21:22 | 53.31225 | -2.36119 | 1382 ft | 127 kts | 50° |
| 2026-05-03 21:23 | 53.31792 | -2.34977 | 1158 ft | 129 kts | 50° |
| 2026-05-03 21:23 | 53.32358 | -2.33792 | 946 ft | 131 kts | 53° |
| 2026-05-03 21:23 | 53.32927 | -2.32591 | 741 ft | 132 kts | 51° |
| 2026-05-03 21:23 | 53.33492 | -2.31408 | 583 ft | 128 kts | 50° |
| 2026-05-03 21:24 | 53.34038 | -2.30264 | 450 ft | 125 kts | 52° |
| 2026-05-03 21:24 | 53.34589 | -2.29102 | 311 ft | 127 kts | 52° |
| 2026-05-03 21:24 | 53.35141 | -2.27974 | 233 ft | 116 kts | 51° |
| 2026-05-03 21:24 | 53.35558 | -2.27115 | 252 ft | 75 kts | 51° |
| 2026-05-03 21:25 | 53.35775 | -2.26690 | 268 ft | 30 kts | 25° |
| 2026-05-03 21:25 | 53.35903 | -2.26713 | 257 ft | 5 kts | 328° |
| 2026-05-03 21:25 | 53.35918 | -2.26767 | 254 ft | 0 kts | 273° |
| 2026-05-03 21:26 | 53.35918 | -2.26776 | 254 ft | 1 kts | 273° |
| 2026-05-03 21:26 | 53.35918 | -2.26778 | 254 ft | 0 kts | 272° |
| 2026-05-03 21:26 | 53.35918 | -2.26783 | 254 ft | 1 kts | 276° |
| 2026-05-03 21:26 | 53.35945 | -2.26832 | 254 ft | 12 kts | 329° |
| 2026-05-03 21:27 | 53.36024 | -2.26756 | 254 ft | 6 kts | 49° |
| 2026-05-03 21:27 | 53.36054 | -2.26723 | 254 ft | 1 kts | 352° |
| 2026-05-03 21:27 | 53.36059 | -2.26736 | 254 ft | 2 kts | 304° |
| 2026-05-03 21:27 | 53.36077 | -2.26774 | 254 ft | 0 kts | 313° |
| 2026-05-03 21:28 | 53.36082 | -2.26784 | 254 ft | 1 kts | 313° |
| 2026-05-03 21:28 | 53.36088 | -2.26793 | 254 ft | 0 kts | 313° |